createdAt,value
2022-09-04T00:01:40.086Z,70.26
2022-09-04T00:04:24.938Z,70.41
2022-09-04T00:07:01.257Z,70.57
2022-09-04T00:09:37.372Z,70.66
2022-09-04T00:12:09.319Z,70.72
2022-09-04T00:14:44.515Z,70.96
2022-09-04T00:17:20.343Z,71.13
2022-09-04T00:19:56.221Z,71.22
2022-09-04T00:22:33.307Z,71.26
2022-09-04T00:25:11.242Z,71.14
2022-09-04T00:27:45.635Z,72.05
2022-09-04T00:30:20.301Z,71.92
2022-09-04T00:32:58.347Z,71.95
2022-09-04T00:35:31.303Z,72.10
2022-09-04T00:38:07.682Z,72.19
2022-09-04T00:40:42.247Z,72.46
2022-09-04T00:43:55.314Z,72.52
2022-09-04T00:46:42.414Z,72.59
2022-09-04T00:49:31.023Z,72.74
2022-09-04T00:52:07.391Z,72.96
2022-09-04T00:55:09.951Z,73.19
2022-09-04T00:57:55.098Z,73.38
2022-09-04T01:00:27.857Z,73.52
2022-09-04T01:03:09.445Z,73.71
2022-09-04T01:05:51.903Z,74.54
2022-09-04T01:08:40.809Z,74.40
2022-09-04T01:11:16.212Z,74.13
2022-09-04T01:13:51.733Z,74.30
2022-09-04T01:16:26.292Z,74.29
2022-09-04T01:19:00.372Z,74.26
2022-09-04T01:21:58.492Z,74.38
2022-09-04T01:24:42.305Z,74.43
2022-09-04T01:27:20.205Z,74.46
2022-09-04T01:29:59.969Z,74.51
2022-09-04T01:32:40.715Z,74.28
2022-09-04T01:35:19.994Z,74.20
2022-09-04T01:37:56.856Z,74.63
2022-09-04T01:40:37.530Z,74.55
2022-09-04T01:43:11.875Z,74.19
2022-09-04T01:46:00.794Z,73.67
2022-09-04T01:48:35.915Z,73.86
2022-09-04T01:51:10.613Z,73.93
2022-09-04T01:53:43.787Z,74.46
2022-09-04T01:56:20.858Z,74.65
2022-09-04T01:58:56.132Z,74.97
2022-09-04T02:01:32.034Z,75.15
2022-09-04T02:04:12.047Z,75.44
2022-09-04T02:06:47.858Z,75.45
2022-09-04T02:09:30.709Z,75.53
2022-09-04T02:12:02.407Z,75.81
2022-09-04T02:14:45.807Z,75.96
2022-09-04T02:17:20.785Z,76.14
2022-09-04T02:20:07.124Z,76.27
2022-09-04T02:22:44.835Z,76.30
2022-09-04T02:25:22.081Z,76.33
2022-09-04T02:28:04.281Z,76.28
2022-09-04T02:30:37.644Z,76.27
2022-09-04T02:33:15.143Z,76.26
2022-09-04T02:35:50.202Z,76.43
2022-09-04T02:38:30.712Z,76.19
2022-09-04T02:41:04.805Z,76.37
2022-09-04T02:43:47.356Z,76.36
2022-09-04T02:46:22.796Z,76.36
2022-09-04T02:49:03.485Z,76.13
2022-09-04T02:51:42.649Z,75.95
2022-09-04T02:54:18.314Z,75.67
2022-09-04T02:56:53.609Z,75.53
2022-09-04T02:59:33.557Z,75.39
2022-09-04T03:02:05.160Z,75.18
2022-09-04T03:04:40.198Z,75.05
2022-09-04T03:07:15.161Z,74.90
2022-09-04T03:09:47.931Z,74.62
2022-09-04T03:12:28.905Z,74.71
2022-09-04T03:15:05.355Z,74.70
2022-09-04T03:17:41.843Z,74.53
2022-09-04T03:20:17.838Z,74.75
2022-09-04T03:22:53.215Z,74.96
2022-09-04T03:25:48.773Z,75.08
2022-09-04T03:28:24.730Z,75.56
2022-09-04T03:30:56.477Z,75.94
2022-09-04T03:33:33.241Z,76.18
2022-09-04T03:36:08.022Z,76.43
2022-09-04T03:38:42.721Z,76.82
2022-09-04T03:41:17.281Z,76.97
2022-09-04T03:43:57.053Z,77.10
2022-09-04T03:46:37.973Z,77.07
2022-09-04T03:49:16.370Z,77.10
2022-09-04T03:51:56.864Z,77.11
2022-09-04T03:54:44.092Z,77.07
2022-09-04T03:57:25.256Z,76.95
2022-09-04T04:00:05.970Z,77.01
2022-09-04T04:03:08.545Z,76.94
2022-09-04T04:05:43.408Z,76.89
2022-09-04T04:08:33.529Z,76.81
2022-09-04T04:11:15.463Z,76.69
2022-09-04T04:13:59.262Z,76.54
2022-09-04T04:16:40.923Z,76.51
2022-09-04T04:19:25.733Z,76.52
2022-09-04T04:22:09.357Z,76.48
2022-09-04T04:25:09.152Z,76.45
2022-09-04T04:27:49.288Z,76.45
2022-09-04T04:30:20.222Z,76.62
2022-09-04T04:33:11.811Z,76.61
2022-09-04T04:35:45.986Z,76.60
2022-09-04T04:38:26.421Z,76.61
2022-09-04T04:41:24.803Z,76.04
2022-09-04T04:44:08.641Z,75.25
2022-09-04T04:46:51.246Z,75.10
2022-09-04T04:49:32.370Z,75.26
2022-09-04T04:52:15.839Z,75.34
2022-09-04T04:54:53.942Z,75.45
2022-09-04T04:57:31.196Z,75.55
2022-09-04T05:00:08.236Z,75.66
2022-09-04T05:02:43.885Z,75.69
2022-09-04T05:05:18.907Z,75.78
2022-09-04T05:07:54.418Z,75.87
2022-09-04T05:10:30.231Z,75.89
2022-09-04T05:13:12.694Z,75.92
2022-09-04T05:16:07.360Z,75.85
2022-09-04T05:18:42.033Z,75.92
2022-09-04T05:21:18.078Z,75.91
2022-09-04T05:23:55.147Z,75.95
2022-09-04T05:26:31.198Z,76.03
2022-09-04T05:29:06.100Z,76.04
2022-09-04T05:31:43.863Z,76.01
2022-09-04T05:34:23.145Z,75.92
2022-09-04T05:37:02.824Z,75.88
2022-09-04T05:39:36.500Z,75.88
2022-09-04T05:42:21.185Z,75.61
2022-09-04T05:44:59.858Z,75.59
2022-09-04T05:47:39.727Z,75.57
2022-09-04T05:50:29.121Z,75.73
2022-09-04T05:53:34.935Z,75.85
2022-09-04T05:56:20.388Z,75.79
2022-09-04T05:59:05.630Z,75.82
2022-09-04T06:02:07.205Z,75.92
2022-09-04T06:04:53.720Z,76.07
2022-09-04T06:07:30.874Z,76.09
2022-09-04T06:10:07.674Z,76.22
2022-09-04T06:12:58.658Z,76.08
2022-09-04T06:15:36.670Z,75.98
2022-09-04T06:18:19.553Z,76.05
2022-09-04T06:20:52.704Z,76.01
2022-09-04T06:23:55.154Z,76.13
2022-09-04T06:26:49.835Z,76.10
2022-09-04T06:29:33.204Z,75.78
2022-09-04T06:32:32.077Z,75.60
2022-09-04T06:35:18.748Z,75.37
2022-09-04T06:37:58.719Z,75.03
2022-09-04T06:40:39.827Z,74.83
2022-09-04T06:43:19.862Z,74.72
2022-09-04T06:46:02.149Z,74.52
2022-09-04T06:48:43.693Z,74.20
2022-09-04T06:51:23.950Z,74.07
2022-09-04T06:54:00.811Z,73.99
2022-09-04T06:56:47.586Z,74.12
2022-09-04T06:59:31.739Z,74.02
2022-09-04T07:02:12.007Z,73.73
2022-09-04T07:04:52.429Z,73.65
2022-09-04T07:07:27.045Z,73.67
2022-09-04T07:10:01.640Z,73.56
2022-09-04T07:12:51.750Z,73.69
2022-09-04T07:16:02.028Z,73.39
2022-09-04T07:18:44.472Z,73.01
2022-09-04T07:21:20.762Z,72.68
2022-09-04T07:24:00.341Z,72.30
2022-09-04T07:26:35.174Z,72.65
2022-09-04T07:29:25.941Z,72.82
2022-09-04T07:32:01.986Z,72.43
2022-09-04T07:34:41.819Z,72.46
2022-09-04T07:37:23.322Z,71.97
2022-09-04T07:40:00.773Z,71.75
2022-09-04T07:42:36.576Z,71.86
2022-09-04T07:45:08.780Z,71.55
2022-09-04T07:47:43.193Z,71.22
2022-09-04T07:50:17.479Z,70.44
2022-09-04T07:53:11.169Z,70.17
2022-09-04T07:55:43.321Z,69.89
2022-09-04T07:58:32.542Z,69.42
2022-09-04T08:01:15.440Z,68.70
2022-09-04T08:04:01.540Z,68.65
2022-09-04T08:06:35.488Z,68.07
2022-09-04T08:09:20.520Z,67.40
2022-09-04T08:12:00.299Z,66.99
2022-09-04T08:14:42.453Z,66.19
2022-09-04T08:17:37.094Z,65.25
2022-09-04T08:20:18.567Z,64.76
2022-09-04T08:22:56.477Z,64.40
2022-09-04T08:25:30.764Z,64.19
2022-09-04T08:28:17.439Z,64.38
2022-09-04T08:30:53.890Z,64.12
2022-09-04T08:34:03.295Z,62.87
2022-09-04T08:36:39.937Z,61.98
2022-09-04T08:39:13.999Z,60.52
2022-09-04T08:42:09.925Z,59.62
2022-09-04T08:45:22.916Z,59.22
2022-09-04T08:48:32.405Z,57.97
2022-09-04T08:51:28.546Z,58.17
2022-09-04T08:54:17.104Z,58.28
2022-09-04T08:56:54.255Z,57.21
2022-09-04T08:59:57.541Z,56.58
2022-09-04T09:03:02.561Z,54.89
2022-09-04T09:05:47.402Z,53.65
2022-09-04T09:08:31.660Z,53.81
2022-09-04T09:11:38.301Z,51.37
2022-09-04T09:14:49.141Z,50.88
2022-09-04T09:17:34.535Z,50.81
2022-09-04T09:20:20.133Z,50.42
2022-09-04T09:23:20.386Z,50.23
2022-09-04T09:25:55.391Z,49.21
2022-09-04T09:29:08.429Z,47.89
2022-09-04T09:32:05.071Z,47.68
2022-09-04T09:35:03.241Z,47.77
2022-09-04T09:37:47.649Z,46.79
2022-09-04T09:40:48.733Z,46.42
2022-09-04T09:43:28.062Z,46.32
2022-09-04T09:46:38.460Z,45.42
2022-09-04T09:49:32.099Z,44.79
2022-09-04T09:52:24.320Z,45.11
2022-09-04T09:55:19.055Z,44.62
2022-09-04T09:58:14.973Z,43.68
2022-09-04T10:00:56.695Z,43.22
2022-09-04T10:04:06.776Z,42.46
2022-09-04T10:07:03.515Z,42.98
2022-09-04T10:09:48.368Z,42.25
2022-09-04T10:12:52.193Z,42.37
2022-09-04T10:15:48.332Z,41.28
2022-09-04T10:18:34.369Z,41.19
2022-09-04T10:21:27.438Z,40.81
2022-09-04T10:24:32.386Z,39.84
2022-09-04T10:27:43.673Z,39.43
2022-09-04T10:30:15.295Z,39.31
2022-09-04T10:33:08.028Z,39.31
2022-09-04T10:35:53.667Z,39.31
2022-09-04T10:38:58.896Z,39.05
2022-09-04T10:41:49.767Z,38.65
2022-09-04T10:44:36.721Z,38.56
2022-09-04T10:47:18.675Z,38.03
2022-09-04T10:49:50.515Z,37.93
2022-09-04T10:52:51.056Z,38.14
2022-09-04T10:55:33.275Z,37.62
2022-09-04T10:58:39.922Z,37.01
2022-09-04T11:01:32.256Z,36.74
2022-09-04T11:04:19.256Z,36.32
2022-09-04T11:07:08.275Z,35.42
2022-09-04T11:09:59.348Z,34.95
2022-09-04T11:12:50.410Z,34.52
2022-09-04T11:15:36.064Z,33.90
2022-09-04T11:18:19.246Z,33.17
2022-09-04T11:21:18.593Z,33.24
2022-09-04T11:24:22.043Z,33.15
2022-09-04T11:27:21.728Z,32.44
2022-09-04T11:30:10.128Z,31.91
2022-09-04T11:33:08.727Z,31.48
2022-09-04T11:36:00.548Z,30.94
2022-09-04T11:39:07.946Z,30.77
2022-09-04T11:42:03.843Z,30.07
2022-09-04T11:45:07.287Z,30.19
2022-09-04T11:47:54.407Z,29.69
2022-09-04T11:50:35.268Z,29.46
2022-09-04T11:53:26.923Z,29.03
2022-09-04T11:56:06.158Z,29.06
2022-09-04T11:58:57.571Z,28.93
2022-09-04T12:01:39.388Z,28.58
2022-09-04T12:04:25.775Z,28.21
2022-09-04T12:07:12.368Z,27.35
2022-09-04T12:09:55.891Z,26.43
2022-09-04T12:12:38.296Z,26.90
2022-09-04T12:15:20.337Z,27.45
2022-09-04T12:18:37.606Z,27.12
2022-09-04T12:21:21.009Z,27.05
2022-09-04T12:24:06.815Z,27.24
2022-09-04T12:27:06.189Z,27.36
2022-09-04T12:29:51.050Z,27.02
2022-09-04T12:32:37.207Z,26.40
2022-09-04T12:35:48.947Z,26.46
2022-09-04T12:38:36.428Z,25.93
2022-09-04T12:41:11.685Z,25.74
2022-09-04T12:43:56.119Z,26.07
2022-09-04T12:46:41.103Z,25.67
2022-09-04T12:49:28.343Z,24.86
2022-09-04T12:52:08.815Z,24.71
2022-09-04T12:54:43.837Z,24.00
2022-09-04T12:57:25.987Z,23.73
2022-09-04T13:00:07.276Z,22.95
2022-09-04T13:02:46.803Z,23.05
2022-09-04T13:05:36.137Z,22.53
2022-09-04T13:08:18.854Z,22.93
2022-09-04T13:11:00.808Z,23.11
2022-09-04T13:13:43.170Z,22.01
2022-09-04T13:16:20.409Z,22.11
2022-09-04T13:19:00.399Z,22.63
2022-09-04T13:21:44.115Z,22.03
2022-09-04T13:24:25.476Z,21.96
2022-09-04T13:27:04.570Z,21.35
2022-09-04T13:29:43.903Z,20.90
2022-09-04T13:32:31.615Z,21.18
2022-09-04T13:35:19.515Z,20.79
2022-09-04T13:38:03.664Z,20.04
2022-09-04T13:40:42.617Z,20.36
2022-09-04T13:43:33.890Z,20.37
2022-09-04T13:46:07.917Z,20.70
2022-09-04T13:48:42.971Z,20.71
2022-09-04T13:51:15.812Z,20.31
2022-09-04T13:53:57.131Z,19.74
2022-09-04T13:56:31.249Z,19.88
2022-09-04T13:59:08.509Z,19.62
2022-09-04T14:01:46.109Z,18.96
2022-09-04T14:04:23.662Z,19.13
2022-09-04T14:06:55.451Z,19.16
2022-09-04T14:09:25.835Z,18.83
2022-09-04T14:12:09.593Z,18.54
2022-09-04T14:15:07.627Z,18.60
2022-09-04T14:17:42.479Z,20.09
2022-09-04T14:20:22.219Z,22.25
2022-09-04T14:22:59.041Z,24.22
2022-09-04T14:25:33.226Z,25.96
2022-09-04T14:28:08.186Z,27.23
2022-09-04T14:30:45.476Z,28.92
2022-09-04T14:33:35.664Z,30.24
2022-09-04T14:36:16.081Z,31.26
2022-09-04T14:38:59.500Z,32.28
2022-09-04T14:41:44.077Z,33.67
2022-09-04T14:44:32.398Z,34.44
2022-09-04T14:47:09.554Z,34.94
2022-09-04T14:49:47.416Z,35.30
2022-09-04T14:52:20.100Z,35.44
2022-09-04T14:54:55.584Z,35.81
2022-09-04T14:57:32.026Z,36.11
2022-09-04T15:00:10.326Z,36.32
2022-09-04T15:02:44.607Z,36.71
2022-09-04T15:05:22.373Z,37.28
2022-09-04T15:08:02.792Z,37.66
2022-09-04T15:10:50.341Z,37.88
2022-09-04T15:13:38.053Z,37.87
2022-09-04T15:16:19.494Z,38.15
2022-09-04T15:18:58.961Z,38.27
2022-09-04T15:21:36.879Z,38.31
2022-09-04T15:24:16.305Z,38.31
2022-09-04T15:26:55.706Z,38.40
2022-09-04T15:29:35.107Z,38.29
2022-09-04T15:32:12.258Z,38.61
2022-09-04T15:34:44.748Z,38.75
2022-09-04T15:37:19.917Z,38.73
2022-09-04T15:39:59.159Z,38.56
2022-09-04T15:42:40.437Z,38.67
2022-09-04T15:45:19.428Z,39.16
2022-09-04T15:48:09.279Z,39.38
2022-09-04T15:50:51.307Z,39.42
2022-09-04T15:53:27.284Z,39.55
2022-09-04T15:56:10.497Z,39.63
2022-09-04T15:58:55.678Z,39.73
2022-09-04T16:01:28.957Z,39.63
2022-09-04T16:04:07.136Z,39.65
2022-09-04T16:06:45.297Z,39.36
2022-09-04T16:09:24.028Z,39.15
2022-09-04T16:12:03.520Z,39.17
2022-09-04T16:14:38.470Z,39.03
2022-09-04T16:17:17.223Z,38.97
2022-09-04T16:19:49.992Z,38.86
2022-09-04T16:22:31.932Z,38.88
2022-09-04T16:25:10.985Z,39.05
2022-09-04T16:27:52.480Z,39.30
2022-09-04T16:30:33.990Z,39.47
2022-09-04T16:33:12.901Z,39.56
2022-09-04T16:35:52.026Z,39.72
2022-09-04T16:38:25.874Z,40.06
2022-09-04T16:40:59.167Z,40.40
2022-09-04T16:43:34.033Z,40.64
2022-09-04T16:46:10.798Z,40.71
2022-09-04T16:48:48.009Z,40.67
2022-09-04T16:51:39.909Z,40.73
2022-09-04T16:54:14.145Z,41.07
2022-09-04T16:56:49.846Z,41.08
2022-09-04T16:59:30.740Z,41.17
2022-09-04T17:02:03.371Z,41.15
2022-09-04T17:04:40.230Z,41.14
2022-09-04T17:07:18.643Z,41.23
2022-09-04T17:10:03.329Z,41.30
2022-09-04T17:12:47.178Z,41.21
2022-09-04T17:15:26.716Z,41.64
2022-09-04T17:17:58.766Z,41.94
2022-09-04T17:21:33.539Z,42.18
2022-09-04T17:28:56.761Z,42.48
2022-09-04T17:29:18.801Z,42.69
2022-09-04T17:29:37.406Z,43.04
2022-09-04T17:32:25.589Z,43.24
2022-09-04T17:40:31.886Z,43.51
2022-09-04T17:40:43.930Z,44.04
2022-09-04T17:41:36.381Z,44.14
2022-09-04T17:44:19.670Z,44.61
2022-09-04T17:46:57.888Z,45.08
2022-09-04T17:49:34.360Z,45.56
2022-09-04T17:52:07.164Z,45.92
2022-09-04T17:54:42.641Z,46.11
2022-09-04T17:57:26.007Z,46.66
2022-09-04T18:00:03.866Z,46.91
2022-09-04T18:02:40.470Z,47.10
2022-09-04T18:05:19.137Z,47.52
2022-09-04T18:08:07.290Z,47.63
2022-09-04T18:10:51.942Z,47.92
2022-09-04T18:13:37.840Z,48.46
2022-09-04T18:16:34.332Z,48.59
2022-09-04T18:19:18.263Z,49.01
2022-09-04T18:22:22.072Z,49.15
2022-09-04T18:24:44.953Z,49.66
2022-09-04T18:27:18.876Z,49.82
2022-09-04T18:33:10.491Z,49.96
2022-09-04T18:37:10.646Z,50.27
2022-09-04T18:37:17.020Z,50.70
2022-09-04T18:38:53.652Z,51.07
2022-09-04T18:47:54.649Z,51.30
2022-09-04T18:50:28.302Z,51.40
2022-09-04T18:50:38.907Z,51.54
2022-09-04T18:53:37.004Z,51.96
2022-09-04T18:56:20.646Z,52.20
2022-09-04T18:58:57.135Z,52.34
2022-09-04T19:01:32.523Z,52.64
2022-09-04T19:04:35.321Z,52.67
2022-09-04T19:07:08.245Z,52.83
2022-09-04T19:09:59.807Z,53.09
2022-09-04T19:12:47.156Z,53.18
2022-09-04T19:15:36.812Z,53.28
2022-09-04T19:18:14.396Z,53.60
2022-09-04T19:20:48.256Z,53.64
2022-09-04T19:23:26.673Z,53.71
2022-09-04T19:25:59.862Z,53.89
2022-09-04T19:28:45.672Z,54.10
2022-09-04T19:31:32.129Z,54.19
2022-09-04T19:34:09.214Z,54.43
2022-09-04T19:36:43.713Z,54.44
2022-09-04T19:45:44.403Z,54.55
2022-09-04T19:46:06.998Z,54.79
2022-09-04T19:46:15.404Z,54.90
2022-09-04T19:48:18.603Z,54.97
2022-09-04T19:53:22.792Z,54.99
2022-09-04T19:53:52.103Z,55.15
2022-09-04T19:56:52.958Z,55.22
2022-09-04T19:59:31.885Z,55.25
2022-09-04T20:02:03.819Z,55.23
2022-09-04T20:04:41.293Z,55.40
2022-09-04T20:07:18.103Z,55.44
2022-09-04T20:09:50.743Z,55.37
2022-09-04T20:12:20.404Z,55.36
2022-09-04T20:14:55.215Z,55.37
2022-09-04T20:17:47.689Z,55.46
2022-09-04T20:20:23.088Z,55.56
2022-09-04T20:22:58.028Z,55.62
2022-09-04T20:25:42.160Z,55.55
2022-09-04T20:28:31.246Z,55.64
2022-09-04T20:31:35.505Z,55.82
2022-09-04T20:34:16.481Z,55.86
2022-09-04T20:36:51.203Z,55.93
2022-09-04T20:39:24.738Z,56.04
2022-09-04T20:41:57.628Z,56.16
2022-09-04T20:44:40.690Z,56.11
2022-09-04T20:52:41.964Z,56.28
2022-09-04T20:52:52.038Z,56.49
2022-09-04T20:53:36.535Z,56.42
2022-09-04T20:56:34.757Z,56.40
2022-09-04T21:03:08.299Z,56.68
2022-09-04T21:03:21.364Z,56.71
2022-09-04T21:05:02.333Z,56.87
2022-09-04T21:07:36.753Z,56.83
2022-09-04T21:10:12.354Z,56.99
2022-09-04T21:12:46.358Z,56.96
2022-09-04T21:15:23.369Z,57.05
2022-09-04T21:18:03.763Z,57.09
2022-09-04T21:20:59.974Z,57.09
2022-09-04T21:24:12.420Z,57.31
2022-09-04T21:27:04.182Z,57.41
2022-09-04T21:29:52.385Z,57.50
2022-09-04T21:32:31.969Z,57.63
2022-09-04T21:35:12.631Z,57.73
2022-09-04T21:37:55.616Z,57.70
2022-09-04T21:40:51.854Z,57.74
2022-09-04T21:43:36.278Z,57.71
2022-09-04T21:46:19.368Z,57.90
2022-09-04T21:58:49.216Z,57.93
2022-09-04T22:02:31.070Z,58.10
2022-09-04T22:02:39.063Z,58.23
2022-09-04T22:04:15.339Z,58.22
2022-09-04T22:10:03.880Z,58.25
2022-09-04T22:13:29.416Z,58.26
2022-09-04T22:13:40.668Z,58.24
2022-09-04T22:16:00.153Z,58.21
2022-09-04T22:18:55.262Z,58.18
2022-09-04T22:21:30.855Z,58.12
2022-09-04T22:24:31.295Z,58.13
2022-09-04T22:27:23.940Z,58.16
2022-09-04T22:30:05.493Z,58.09
2022-09-04T22:33:12.855Z,58.12
2022-09-04T22:36:15.917Z,58.00
2022-09-04T22:39:04.755Z,58.15
2022-09-04T22:42:01.296Z,58.42
2022-09-04T22:44:40.244Z,58.54
2022-09-04T22:47:27.358Z,58.44
2022-09-04T22:50:11.771Z,58.45
2022-09-04T22:52:52.309Z,58.52
2022-09-04T22:55:40.523Z,58.61
2022-09-04T22:58:36.360Z,58.85
2022-09-04T23:01:18.222Z,59.00
2022-09-04T23:04:01.740Z,59.25
2022-09-04T23:09:06.101Z,59.28
2022-09-04T23:13:46.985Z,59.26
2022-09-04T23:13:58.176Z,59.47
2022-09-04T23:15:57.815Z,59.51
2022-09-04T23:23:30.570Z,59.67
2022-09-04T23:26:42.532Z,59.78
2022-09-04T23:26:47.563Z,59.82
2022-09-04T23:27:55.466Z,59.90
2022-09-04T23:30:27.054Z,60.06
2022-09-04T23:33:32.080Z,60.02
2022-09-04T23:36:07.264Z,59.95
2022-09-04T23:39:16.947Z,59.88
2022-09-04T23:42:03.292Z,59.84
2022-09-04T23:45:07.119Z,59.94
2022-09-04T23:47:51.358Z,59.84
2022-09-04T23:50:32.104Z,59.75
2022-09-04T23:53:12.673Z,59.52
2022-09-04T23:55:50.454Z,59.45
2022-09-04T23:58:52.142Z,59.38
